createdAt,value
2023-02-19T00:00:05.288Z,9.418425
2023-02-19T00:01:05.262Z,9.418338
2023-02-19T00:02:05.265Z,9.418302
2023-02-19T00:03:05.287Z,9.418322
2023-02-19T00:04:05.267Z,9.418330
2023-02-19T00:05:05.320Z,9.418265
2023-02-19T00:06:05.270Z,9.418239
2023-02-19T00:07:05.213Z,9.418248
2023-02-19T00:08:05.222Z,9.418312
2023-02-19T00:09:05.213Z,9.418266
2023-02-19T00:10:05.184Z,9.418246
2023-02-19T00:11:05.227Z,9.418346
2023-02-19T00:12:05.187Z,9.418434
2023-02-19T00:13:05.177Z,9.418393
2023-02-19T00:14:05.160Z,9.418348
2023-02-19T00:15:05.156Z,9.418317
2023-02-19T00:16:05.226Z,9.418286
2023-02-19T00:17:05.179Z,9.418273
2023-02-19T00:18:05.133Z,9.418139
2023-02-19T00:19:05.140Z,9.418247
2023-02-19T00:20:05.130Z,9.418310
2023-02-19T00:21:05.135Z,9.418302
2023-02-19T00:22:05.122Z,9.418304
2023-02-19T00:23:05.109Z,9.418429
2023-02-19T00:24:05.101Z,9.418278
2023-02-19T00:25:05.096Z,9.418256
2023-02-19T00:26:17.156Z,9.418164
2023-02-19T00:27:07.093Z,9.418230
2023-02-19T00:28:05.072Z,9.418283
2023-02-19T00:29:05.080Z,9.418244
2023-02-19T00:30:05.119Z,9.418129
2023-02-19T00:31:05.213Z,9.418042
2023-02-19T00:32:05.120Z,9.418035
2023-02-19T00:33:05.075Z,9.418138
2023-02-19T00:34:05.034Z,9.418240
2023-02-19T00:35:05.033Z,9.418395
2023-02-19T00:36:05.013Z,9.418357
2023-02-19T00:37:05.008Z,9.418296
2023-02-19T00:38:05.003Z,9.418344
2023-02-19T00:39:05.005Z,9.418342
2023-02-19T00:40:04.983Z,9.418330
2023-02-19T00:41:05.028Z,9.418283
2023-02-19T00:42:05.017Z,9.418386
2023-02-19T00:43:05.996Z,9.418369
2023-02-19T00:44:04.980Z,9.418363
2023-02-19T00:45:04.961Z,9.418319
2023-02-19T00:46:04.948Z,9.418379
2023-02-19T00:47:04.943Z,9.418064
2023-02-19T00:48:04.933Z,9.418358
2023-02-19T00:49:05.005Z,9.418355
2023-02-19T00:50:04.908Z,9.418268
2023-02-19T00:51:04.910Z,9.418251
2023-02-19T00:52:04.906Z,9.418150
2023-02-19T00:53:04.906Z,9.418310
2023-02-19T00:54:04.901Z,9.418308
2023-02-19T00:55:04.891Z,9.418283
2023-02-19T00:56:04.871Z,9.418337
2023-02-19T00:57:04.872Z,9.418387
2023-02-19T00:58:04.852Z,9.418294
2023-02-19T00:59:04.862Z,9.418265
2023-02-19T01:00:04.847Z,9.418364
2023-02-19T01:01:04.831Z,9.418287
2023-02-19T01:02:04.826Z,9.418684
2023-02-19T01:03:04.836Z,9.418513
2023-02-19T01:04:06.559Z,9.418205
2023-02-19T01:05:05.811Z,9.418455
2023-02-19T01:06:04.809Z,9.418234
2023-02-19T01:07:04.788Z,9.418188
2023-02-19T01:08:04.779Z,9.418273
2023-02-19T01:09:04.779Z,9.418293
2023-02-19T01:10:04.760Z,9.418505
2023-02-19T01:11:04.799Z,9.418153
2023-02-19T01:12:04.749Z,9.418149
2023-02-19T01:13:04.746Z,9.418335
2023-02-19T01:14:04.740Z,9.418309
2023-02-19T01:15:04.741Z,9.418327
2023-02-19T01:16:04.763Z,9.418346
2023-02-19T01:17:04.729Z,9.418633
2023-02-19T01:18:04.717Z,9.418386
2023-02-19T01:19:04.749Z,9.418668
2023-02-19T01:20:04.691Z,9.418832
2023-02-19T01:21:04.698Z,9.418521
2023-02-19T01:22:04.698Z,9.418459
2023-02-19T01:23:04.673Z,9.418845
2023-02-19T01:24:04.676Z,9.418552
2023-02-19T01:25:04.668Z,9.418696
2023-02-19T01:26:04.644Z,9.418692
2023-02-19T01:27:04.677Z,9.418345
2023-02-19T01:28:04.627Z,9.418354
2023-02-19T01:29:04.632Z,9.418315
2023-02-19T01:30:04.657Z,9.418373
2023-02-19T01:31:04.671Z,9.418293
2023-02-19T01:32:05.022Z,9.418146
2023-02-19T01:33:04.603Z,9.418281
2023-02-19T01:34:04.588Z,9.418212
2023-02-19T01:35:04.578Z,9.418217
2023-02-19T01:36:04.586Z,9.418263
2023-02-19T01:37:04.575Z,9.418302
2023-02-19T01:38:04.576Z,9.418300
2023-02-19T01:39:04.552Z,9.418343
2023-02-19T01:40:04.547Z,9.418241
2023-02-19T01:41:04.543Z,9.418365
2023-02-19T01:42:04.535Z,9.418421
2023-02-19T01:43:04.556Z,9.418306
2023-02-19T01:44:04.634Z,9.418262
2023-02-19T01:45:04.727Z,9.418314
2023-02-19T01:46:04.856Z,9.418240
2023-02-19T01:47:04.645Z,9.418310
2023-02-19T01:48:04.504Z,9.418301
2023-02-19T01:49:04.512Z,9.418343
2023-02-19T01:50:04.493Z,9.418404
2023-02-19T01:51:04.477Z,9.418320
2023-02-19T01:52:04.473Z,9.418325
2023-02-19T01:53:04.484Z,9.418302
2023-02-19T01:54:04.467Z,9.418253
2023-02-19T01:55:04.489Z,9.418270
2023-02-19T01:56:04.456Z,9.418330
2023-02-19T01:57:04.441Z,9.418314
2023-02-19T01:58:04.421Z,9.418288
2023-02-19T01:59:04.431Z,9.418330
2023-02-19T02:00:04.417Z,9.418431
2023-02-19T02:01:04.455Z,9.418477
2023-02-19T02:02:04.429Z,9.418270
2023-02-19T02:03:04.392Z,9.418308
2023-02-19T02:04:04.421Z,9.418275
2023-02-19T02:05:04.370Z,9.418402
2023-02-19T02:06:04.386Z,9.418335
2023-02-19T02:07:04.370Z,9.418354
2023-02-19T02:08:04.354Z,9.418437
2023-02-19T02:09:04.350Z,9.418366
2023-02-19T02:10:04.380Z,9.418293
2023-02-19T02:11:04.341Z,9.418325
2023-02-19T02:12:04.342Z,9.418329
2023-02-19T02:13:04.322Z,9.418416
2023-02-19T02:14:04.303Z,9.418343
2023-02-19T02:15:04.321Z,9.418278
2023-02-19T02:16:04.343Z,9.418324
2023-02-19T02:17:04.307Z,9.418289
2023-02-19T02:18:04.281Z,9.418228
2023-02-19T02:19:04.328Z,9.418336
2023-02-19T02:20:04.275Z,9.418349
2023-02-19T02:21:04.275Z,9.418408
2023-02-19T02:22:04.251Z,9.418471
2023-02-19T02:23:04.244Z,9.418490
2023-02-19T02:24:04.233Z,9.418358
2023-02-19T02:25:04.259Z,9.418131
2023-02-19T02:26:04.236Z,9.418136
2023-02-19T02:27:04.242Z,9.418099
2023-02-19T02:28:04.245Z,9.418122
2023-02-19T02:29:04.221Z,9.418185
2023-02-19T02:30:04.244Z,9.418143
2023-02-19T02:31:04.279Z,9.418128
2023-02-19T02:32:04.293Z,9.418108
2023-02-19T02:33:04.178Z,9.418181
2023-02-19T02:34:04.184Z,9.418171
2023-02-19T02:35:04.168Z,9.418135
2023-02-19T02:36:04.185Z,9.418189
2023-02-19T02:37:04.174Z,9.418180
2023-02-19T02:38:04.160Z,9.418292
2023-02-19T02:39:04.135Z,9.418282
2023-02-19T02:40:04.119Z,9.418480
2023-02-19T02:41:04.120Z,9.418385
2023-02-19T02:42:04.106Z,9.418398
2023-02-19T02:43:04.144Z,9.418369
2023-02-19T02:44:04.085Z,9.418324
2023-02-19T02:45:04.094Z,9.418248
2023-02-19T02:46:04.100Z,9.418286
2023-02-19T02:47:04.080Z,9.418272
2023-02-19T02:48:04.069Z,9.418344
2023-02-19T02:49:04.077Z,9.418386
2023-02-19T02:50:04.047Z,9.418290
2023-02-19T02:51:04.056Z,9.418237
2023-02-19T02:52:04.037Z,9.418308
2023-02-19T02:53:04.030Z,9.418320
2023-02-19T02:54:04.046Z,9.418400
2023-02-19T02:55:04.020Z,9.418477
2023-02-19T02:56:04.015Z,9.418598
2023-02-19T02:57:03.999Z,9.418581
2023-02-19T02:58:03.987Z,9.418229
2023-02-19T02:59:04.014Z,9.418242
2023-02-19T03:00:03.989Z,9.418247
2023-02-19T03:01:03.997Z,9.418380
2023-02-19T03:02:04.018Z,9.418416
2023-02-19T03:03:03.953Z,9.418365
2023-02-19T03:04:03.972Z,9.418339
2023-02-19T03:05:03.964Z,9.418449
2023-02-19T03:06:03.934Z,9.418419
2023-02-19T03:07:03.935Z,9.418298
2023-02-19T03:08:03.922Z,9.418344
2023-02-19T03:09:03.927Z,9.418322
2023-02-19T03:10:03.916Z,9.418219
2023-02-19T03:11:03.942Z,9.418213
2023-02-19T03:12:03.901Z,9.418327
2023-02-19T03:13:03.889Z,9.418343
2023-02-19T03:14:03.875Z,9.418344
2023-02-19T03:15:03.869Z,9.418307
2023-02-19T03:16:03.876Z,9.418213
2023-02-19T03:17:03.858Z,9.418282
2023-02-19T03:18:03.846Z,9.418313
2023-02-19T03:19:03.846Z,9.418287
2023-02-19T03:20:03.865Z,9.418262
2023-02-19T03:21:03.855Z,9.418304
2023-02-19T03:22:03.832Z,9.418249
2023-02-19T03:23:03.818Z,9.418174
2023-02-19T03:24:03.816Z,9.418266
2023-02-19T03:25:03.791Z,9.418254
2023-02-19T03:26:03.808Z,9.418321
2023-02-19T03:27:03.795Z,9.418317
2023-02-19T03:28:03.776Z,9.418266
2023-02-19T03:29:03.771Z,9.418244
2023-02-19T03:30:03.795Z,9.418214
2023-02-19T03:31:03.762Z,9.418120
2023-02-19T03:32:03.865Z,9.418134
2023-02-19T03:33:03.741Z,9.418143
2023-02-19T03:34:03.739Z,9.418233
2023-02-19T03:35:03.729Z,9.418303
2023-02-19T03:36:03.705Z,9.418189
2023-02-19T03:37:03.735Z,9.418250
2023-02-19T03:38:03.729Z,9.418234
2023-02-19T03:39:03.692Z,9.418263
2023-02-19T03:40:03.685Z,9.418162
2023-02-19T03:41:03.674Z,9.418176
2023-02-19T03:42:03.661Z,9.418296
2023-02-19T03:43:03.670Z,9.418136
2023-02-19T03:44:03.658Z,9.418246
2023-02-19T03:45:03.643Z,9.418307
2023-02-19T03:46:03.641Z,9.418184
2023-02-19T03:47:03.694Z,9.418339
2023-02-19T03:48:03.640Z,9.418181
2023-02-19T03:49:03.616Z,9.418320
2023-02-19T03:50:03.616Z,9.418107
2023-02-19T03:51:03.607Z,9.418180
2023-02-19T03:52:03.608Z,9.418245
2023-02-19T03:53:03.583Z,9.418794
2023-02-19T03:54:03.584Z,9.417937
2023-02-19T03:55:03.568Z,9.418405
2023-02-19T03:56:03.577Z,9.418039
2023-02-19T03:57:03.600Z,9.418598
2023-02-19T03:58:03.552Z,9.418136
2023-02-19T03:59:03.553Z,9.418612
2023-02-19T04:00:03.540Z,9.418259
2023-02-19T04:01:03.525Z,9.418374
2023-02-19T04:02:03.575Z,9.418240
2023-02-19T04:03:03.530Z,9.418439
2023-02-19T04:04:03.512Z,9.418552
2023-02-19T04:05:03.518Z,9.418434
2023-02-19T04:06:03.499Z,9.418571
2023-02-19T04:07:03.495Z,9.418702
2023-02-19T04:08:03.505Z,9.418471
2023-02-19T04:09:03.481Z,9.418358
2023-02-19T04:10:03.497Z,9.418339
2023-02-19T04:11:03.487Z,9.418401
2023-02-19T04:12:03.455Z,9.418509
2023-02-19T04:13:03.468Z,9.418385
2023-02-19T04:14:03.444Z,9.418347
2023-02-19T04:15:03.437Z,9.418530
2023-02-19T04:16:03.427Z,9.418490
2023-02-19T04:17:03.419Z,9.418388
2023-02-19T04:18:03.420Z,9.418588
2023-02-19T04:19:03.418Z,9.418441
2023-02-19T04:20:03.389Z,9.418447
2023-02-19T04:21:03.415Z,9.418399
2023-02-19T04:22:03.386Z,9.418342
2023-02-19T04:23:03.378Z,9.418380
2023-02-19T04:24:03.389Z,9.418393
2023-02-19T04:25:03.370Z,9.418344
2023-02-19T04:26:03.355Z,9.418275
2023-02-19T04:27:03.348Z,9.418145
2023-02-19T04:28:03.358Z,9.418285
2023-02-19T04:29:03.354Z,9.418127
2023-02-19T04:30:03.359Z,9.418130
2023-02-19T04:31:03.343Z,9.418115
2023-02-19T04:32:03.340Z,9.418200
2023-02-19T04:33:03.319Z,9.418268
2023-02-19T04:34:03.309Z,9.418276
2023-02-19T04:35:03.287Z,9.418306
2023-02-19T04:36:03.282Z,9.418420
2023-02-19T04:37:03.257Z,9.418447
2023-02-19T04:38:04.295Z,9.418373
2023-02-19T04:39:03.267Z,9.418365
2023-02-19T04:40:03.244Z,9.418328
2023-02-19T04:41:03.239Z,9.418282
2023-02-19T04:42:03.251Z,9.418288
2023-02-19T04:43:03.233Z,9.418264
2023-02-19T04:44:03.218Z,9.418237
2023-02-19T04:45:03.221Z,9.418265
2023-02-19T04:46:03.236Z,9.418276
2023-02-19T04:47:03.196Z,9.418385
2023-02-19T04:48:03.183Z,9.418399
2023-02-19T04:49:03.196Z,9.418298
2023-02-19T04:50:03.197Z,9.418286
2023-02-19T04:51:03.162Z,9.418299
2023-02-19T04:52:03.155Z,9.418435
2023-02-19T04:53:03.175Z,9.418421
2023-02-19T04:54:03.141Z,9.418374
2023-02-19T04:55:03.153Z,9.418283
2023-02-19T04:56:03.125Z,9.418392
2023-02-19T04:57:03.185Z,9.418305
2023-02-19T04:58:03.112Z,9.418292
2023-02-19T04:59:03.101Z,9.418253
2023-02-19T05:00:03.099Z,9.418269
2023-02-19T05:01:03.100Z,9.418213
2023-02-19T05:02:03.094Z,9.418267
2023-02-19T05:03:03.077Z,9.418335
2023-02-19T05:04:03.095Z,9.418231
2023-02-19T05:05:03.095Z,9.418164
2023-02-19T05:06:03.047Z,9.418228
2023-02-19T05:07:03.056Z,9.418189
2023-02-19T05:08:03.042Z,9.418238
2023-02-19T05:09:03.025Z,9.418250
2023-02-19T05:10:03.031Z,9.418290
2023-02-19T05:11:03.039Z,9.418254
2023-02-19T05:12:03.012Z,9.418320
2023-02-19T05:13:03.025Z,9.418233
2023-02-19T05:14:02.993Z,9.418320
2023-02-19T05:15:03.005Z,9.418326
2023-02-19T05:16:03.063Z,9.418288
2023-02-19T05:17:02.973Z,9.418252
2023-02-19T05:18:02.965Z,9.418195
2023-02-19T05:19:02.967Z,9.418192
2023-02-19T05:20:02.949Z,9.418255
2023-02-19T05:21:02.942Z,9.418279
2023-02-19T05:22:02.969Z,9.418258
2023-02-19T05:23:02.947Z,9.418269
2023-02-19T05:24:02.925Z,9.418194
2023-02-19T05:25:02.921Z,9.418242
2023-02-19T05:26:02.914Z,9.418495
2023-02-19T05:27:02.913Z,9.418352
2023-02-19T05:28:02.912Z,9.418260
2023-02-19T05:29:02.899Z,9.418341
2023-02-19T05:30:02.952Z,9.418344
2023-02-19T05:31:02.900Z,9.418220
2023-02-19T05:32:02.913Z,9.418181
2023-02-19T05:33:02.867Z,9.418280
2023-02-19T05:34:02.857Z,9.418269
2023-02-19T05:35:02.850Z,9.418230
2023-02-19T05:36:02.869Z,9.418256
2023-02-19T05:37:02.858Z,9.418204
2023-02-19T05:38:02.833Z,9.418271
2023-02-19T05:39:02.830Z,9.418207
2023-02-19T05:40:02.815Z,9.418331
2023-02-19T05:41:02.837Z,9.418926
2023-02-19T05:42:02.809Z,9.419031
2023-02-19T05:43:02.802Z,9.419029
2023-02-19T05:44:02.798Z,9.418621
2023-02-19T05:45:02.792Z,9.418427
2023-02-19T05:46:02.805Z,9.418428
2023-02-19T05:47:02.798Z,9.418328
2023-02-19T05:48:02.760Z,9.418425
2023-02-19T05:49:02.772Z,9.418415
2023-02-19T05:50:02.748Z,9.418420
2023-02-19T05:51:02.743Z,9.418336
2023-02-19T05:52:02.744Z,9.418313
2023-02-19T05:53:02.747Z,9.418258
2023-02-19T05:54:02.721Z,9.418329
2023-02-19T05:55:02.709Z,9.418220
2023-02-19T05:56:02.692Z,9.418258
2023-02-19T05:57:02.691Z,9.418267
2023-02-19T05:58:02.708Z,9.418279
2023-02-19T05:59:02.684Z,9.418270
2023-02-19T06:00:02.651Z,9.418245
2023-02-19T06:01:02.661Z,9.418415
2023-02-19T06:02:02.662Z,9.418399
2023-02-19T06:03:02.674Z,9.418363
2023-02-19T06:04:02.719Z,9.418321
2023-02-19T06:05:02.638Z,9.418299
2023-02-19T06:06:02.632Z,9.418204
2023-02-19T06:07:02.627Z,9.418242
2023-02-19T06:08:02.612Z,9.418303
2023-02-19T06:09:02.631Z,9.418367
2023-02-19T06:10:02.600Z,9.418384
2023-02-19T06:11:03.611Z,9.418321
2023-02-19T06:12:02.629Z,9.418283
2023-02-19T06:13:02.573Z,9.418209
2023-02-19T06:14:02.590Z,9.418350
2023-02-19T06:15:02.576Z,9.418243
2023-02-19T06:16:02.611Z,9.418220
2023-02-19T06:17:02.569Z,9.418301
2023-02-19T06:18:02.541Z,9.418301
2023-02-19T06:19:02.556Z,9.418214
2023-02-19T06:20:02.548Z,9.418165
2023-02-19T06:21:02.681Z,9.418203
2023-02-19T06:22:02.589Z,9.418185
2023-02-19T06:23:02.516Z,9.418225
2023-02-19T06:24:02.500Z,9.418170
2023-02-19T06:25:02.521Z,9.418204
2023-02-19T06:26:02.500Z,9.418312
2023-02-19T06:27:02.502Z,9.418320
2023-02-19T06:28:02.477Z,9.418345
2023-02-19T06:29:02.475Z,9.418385
2023-02-19T06:30:02.521Z,9.418242
2023-02-19T06:31:02.505Z,9.418216
2023-02-19T06:32:02.604Z,9.418245
2023-02-19T06:33:02.443Z,9.418266
2023-02-19T06:34:02.434Z,9.418239
2023-02-19T06:35:02.458Z,9.418178
2023-02-19T06:36:02.493Z,9.418295
2023-02-19T06:37:02.415Z,9.418178
2023-02-19T06:38:02.410Z,9.418267
2023-02-19T06:39:02.442Z,9.418295
2023-02-19T06:40:02.427Z,9.418254
2023-02-19T06:41:02.421Z,9.418315
2023-02-19T06:42:02.394Z,9.418340
2023-02-19T06:43:02.379Z,9.418415
2023-02-19T06:44:02.369Z,9.418519
2023-02-19T06:45:02.372Z,9.418654
2023-02-19T06:46:02.362Z,9.418488
2023-02-19T06:47:02.384Z,9.418372
2023-02-19T06:48:02.363Z,9.418241
2023-02-19T06:49:02.341Z,9.418101
2023-02-19T06:50:02.325Z,9.418074
2023-02-19T06:51:02.314Z,9.418224
2023-02-19T06:52:02.338Z,9.418366
2023-02-19T06:53:02.309Z,9.418533
2023-02-19T06:54:02.304Z,9.418421
2023-02-19T06:55:02.290Z,9.418417
2023-02-19T06:56:02.274Z,9.418397
2023-02-19T06:57:02.289Z,9.418497
2023-02-19T06:58:02.276Z,9.418323
2023-02-19T06:59:02.266Z,9.418312
2023-02-19T07:00:02.319Z,9.418177
2023-02-19T07:01:02.322Z,9.418184
2023-02-19T07:02:03.235Z,9.418139
2023-02-19T07:03:04.476Z,9.418029
2023-02-19T07:04:02.274Z,9.418111
2023-02-19T07:05:02.264Z,9.418166
2023-02-19T07:06:03.233Z,9.418127
2023-02-19T07:07:02.211Z,9.418239
2023-02-19T07:08:02.214Z,9.418185
2023-02-19T07:09:02.247Z,9.418184
2023-02-19T07:10:02.174Z,9.418224
2023-02-19T07:11:02.175Z,9.418133
2023-02-19T07:12:02.160Z,9.418265
2023-02-19T07:13:02.154Z,9.418352
2023-02-19T07:14:02.223Z,9.418228
2023-02-19T07:15:02.163Z,9.418226
2023-02-19T07:16:02.213Z,9.418125
2023-02-19T07:17:03.124Z,9.418230
2023-02-19T07:18:02.117Z,9.418313
2023-02-19T07:19:02.959Z,9.418211
2023-02-19T07:20:02.148Z,9.418339
2023-02-19T07:21:02.102Z,9.418270
2023-02-19T07:22:02.102Z,9.418120
2023-02-19T07:23:02.080Z,9.418250
2023-02-19T07:24:02.078Z,9.418176
2023-02-19T07:25:02.098Z,9.418122
2023-02-19T07:26:02.079Z,9.417994
2023-02-19T07:27:03.055Z,9.418160
2023-02-19T07:28:02.364Z,9.418250
2023-02-19T07:29:02.048Z,9.418283
2023-02-19T07:30:02.368Z,9.418246
2023-02-19T07:31:02.120Z,9.418206
2023-02-19T07:32:02.035Z,9.418175
2023-02-19T07:33:02.013Z,9.418228
2023-02-19T07:34:02.010Z,9.418261
2023-02-19T07:35:02.044Z,9.418224
2023-02-19T07:36:02.000Z,9.418312
2023-02-19T07:37:01.989Z,9.418325
2023-02-19T07:38:01.981Z,9.418333
2023-02-19T07:39:01.978Z,9.418291
2023-02-19T07:40:01.975Z,9.418297
2023-02-19T07:41:02.013Z,9.418303
2023-02-19T07:42:01.956Z,9.418355
2023-02-19T07:43:01.966Z,9.418308
2023-02-19T07:44:01.949Z,9.418492
2023-02-19T07:45:01.958Z,9.418525
2023-02-19T07:46:01.971Z,9.418501
2023-02-19T07:47:01.928Z,9.418352
2023-02-19T07:48:01.928Z,9.418402
2023-02-19T07:49:01.911Z,9.418430
2023-02-19T07:50:01.901Z,9.418406
2023-02-19T07:51:01.916Z,9.418320
2023-02-19T07:52:01.919Z,9.418401
2023-02-19T07:53:01.892Z,9.418317
2023-02-19T07:54:01.979Z,9.418280
2023-02-19T07:55:01.873Z,9.418246
2023-02-19T07:56:01.869Z,9.418304
2023-02-19T07:57:01.902Z,9.418307
2023-02-19T07:58:01.877Z,9.418266
2023-02-19T07:59:01.841Z,9.418252
2023-02-19T08:00:01.896Z,9.418272
2023-02-19T08:01:01.873Z,9.418222
2023-02-19T08:02:01.826Z,9.418223
2023-02-19T08:03:01.846Z,9.418262
2023-02-19T08:04:01.819Z,9.418358
2023-02-19T08:05:01.814Z,9.418382
2023-02-19T08:06:01.792Z,9.418366
2023-02-19T08:07:01.822Z,9.418424
2023-02-19T08:08:01.803Z,9.418455
2023-02-19T08:09:01.795Z,9.418413
2023-02-19T08:10:01.771Z,9.418414
2023-02-19T08:11:01.757Z,9.418353
2023-02-19T08:12:01.749Z,9.418341
2023-02-19T08:13:01.758Z,9.418403
2023-02-19T08:14:01.745Z,9.418463
2023-02-19T08:15:01.772Z,9.418407
2023-02-19T08:16:16.095Z,9.418422
2023-02-19T08:17:03.777Z,9.418311
2023-02-19T08:18:01.705Z,9.418406
2023-02-19T08:19:01.712Z,9.418344
2023-02-19T08:20:01.701Z,9.418436
2023-02-19T08:21:01.692Z,9.418435
2023-02-19T08:22:01.681Z,9.418567
2023-02-19T08:23:01.680Z,9.418636
2023-02-19T08:24:01.672Z,9.418836
2023-02-19T08:25:01.725Z,9.419096
2023-02-19T08:26:01.654Z,9.418860
2023-02-19T08:27:01.660Z,9.418764
2023-02-19T08:28:01.653Z,9.418303
2023-02-19T08:29:01.632Z,9.418334
2023-02-19T08:30:01.663Z,9.418292
2023-02-19T08:31:01.694Z,9.418335
2023-02-19T08:32:01.671Z,9.418346
2023-02-19T08:33:02.364Z,9.418321
2023-02-19T08:34:02.597Z,9.418245
2023-02-19T08:35:01.583Z,9.418263
2023-02-19T08:36:01.587Z,9.418301
2023-02-19T08:37:01.589Z,9.418281
2023-02-19T08:38:01.576Z,9.418381
2023-02-19T08:39:01.584Z,9.418339
2023-02-19T08:40:01.568Z,9.418371
2023-02-19T08:41:01.559Z,9.418354
2023-02-19T08:42:01.550Z,9.418295
2023-02-19T08:43:01.547Z,9.418396
2023-02-19T08:44:01.535Z,9.418363
2023-02-19T08:45:01.543Z,9.418333
2023-02-19T08:46:01.518Z,9.418315
2023-02-19T08:47:01.502Z,9.418438
2023-02-19T08:48:01.533Z,9.418352
2023-02-19T08:49:01.503Z,9.418344
2023-02-19T08:50:01.499Z,9.418333
2023-02-19T08:51:01.552Z,9.418347
2023-02-19T08:52:01.484Z,9.418339
2023-02-19T08:53:01.468Z,9.418324
2023-02-19T08:54:01.472Z,9.418325
2023-02-19T08:55:01.462Z,9.418317
2023-02-19T08:56:01.452Z,9.418347
2023-02-19T08:57:01.442Z,9.418337
2023-02-19T08:58:01.440Z,9.418292
2023-02-19T08:59:01.436Z,9.418292
2023-02-19T09:00:01.448Z,9.418262
2023-02-19T09:01:01.483Z,9.418340
2023-02-19T09:02:01.405Z,9.418332
2023-02-19T09:03:01.415Z,9.418267
2023-02-19T09:04:01.427Z,9.418314
2023-02-19T09:05:01.384Z,9.418341
2023-02-19T09:06:01.394Z,9.418299
2023-02-19T09:07:01.376Z,9.418358
2023-02-19T09:08:01.372Z,9.418310
2023-02-19T09:09:01.378Z,9.418230
2023-02-19T09:10:01.472Z,9.418294
2023-02-19T09:11:01.344Z,9.418410
2023-02-19T09:12:01.342Z,9.418386
2023-02-19T09:13:01.339Z,9.418358
2023-02-19T09:14:01.336Z,9.418320
2023-02-19T09:15:01.338Z,9.418233
2023-02-19T09:16:01.372Z,9.418317
2023-02-19T09:17:01.308Z,9.418301
2023-02-19T09:18:01.305Z,9.418318
2023-02-19T09:19:01.308Z,9.418217
2023-02-19T09:20:02.362Z,9.418249
2023-02-19T09:21:01.287Z,9.418326
2023-02-19T09:22:01.287Z,9.418393
2023-02-19T09:23:01.292Z,9.418437
2023-02-19T09:24:01.303Z,9.418318
2023-02-19T09:25:01.265Z,9.418348
2023-02-19T09:26:01.279Z,9.418282
2023-02-19T09:27:01.266Z,9.418352
2023-02-19T09:28:01.256Z,9.418300
2023-02-19T09:29:01.252Z,9.418281
2023-02-19T09:30:01.256Z,9.418263
2023-02-19T09:31:01.292Z,9.418156
2023-02-19T09:32:01.301Z,9.418218
2023-02-19T09:33:01.226Z,9.418212
2023-02-19T09:34:01.303Z,9.418200
2023-02-19T09:35:01.194Z,9.418204
2023-02-19T09:36:01.191Z,9.418172
2023-02-19T09:37:01.205Z,9.418314
2023-02-19T09:38:01.194Z,9.418283
2023-02-19T09:39:01.178Z,9.418317
2023-02-19T09:40:01.195Z,9.418425
2023-02-19T09:41:01.172Z,9.418236
2023-02-19T09:42:01.152Z,9.418264
2023-02-19T09:43:01.955Z,9.418239
2023-02-19T09:44:01.125Z,9.418280
2023-02-19T09:45:01.229Z,9.418211
2023-02-19T09:46:01.168Z,9.418259
2023-02-19T09:47:01.121Z,9.418364
2023-02-19T09:48:01.120Z,9.418433
2023-02-19T09:49:01.100Z,9.418255
2023-02-19T09:50:01.109Z,9.418194
2023-02-19T09:51:01.108Z,9.418275
2023-02-19T09:52:01.108Z,9.418238
2023-02-19T09:53:01.078Z,9.418291
2023-02-19T09:54:01.074Z,9.418416
2023-02-19T09:55:01.073Z,9.418363
2023-02-19T09:56:01.069Z,9.418364
2023-02-19T09:57:01.055Z,9.418231
2023-02-19T09:58:01.049Z,9.418182
2023-02-19T09:59:01.040Z,9.418283
2023-02-19T10:00:01.034Z,9.418327
2023-02-19T10:01:01.029Z,9.418358
2023-02-19T10:02:01.019Z,9.418381
2023-02-19T10:03:01.065Z,9.418324
2023-02-19T10:04:01.042Z,9.418182
2023-02-19T10:05:01.003Z,9.418161
2023-02-19T10:06:01.002Z,9.418262
2023-02-19T10:07:00.983Z,9.418316
2023-02-19T10:08:00.981Z,9.418429
2023-02-19T10:09:00.974Z,9.418454
2023-02-19T10:10:00.972Z,9.418312
2023-02-19T10:11:01.003Z,9.418288
2023-02-19T10:12:00.946Z,9.418478
2023-02-19T10:13:00.942Z,9.418624
2023-02-19T10:14:00.955Z,9.418588
2023-02-19T10:15:00.927Z,9.418509
2023-02-19T10:16:00.989Z,9.418153
2023-02-19T10:17:00.913Z,9.418205
2023-02-19T10:18:00.904Z,9.418294
2023-02-19T10:19:00.922Z,9.418210
2023-02-19T10:20:00.897Z,9.418370
2023-02-19T10:21:00.906Z,9.418378
2023-02-19T10:22:00.910Z,9.418530
2023-02-19T10:23:00.882Z,9.418289
2023-02-19T10:24:00.862Z,9.418258
2023-02-19T10:25:00.861Z,9.418247
2023-02-19T10:26:00.862Z,9.418404
2023-02-19T10:27:00.876Z,9.418135
2023-02-19T10:28:00.846Z,9.418265
2023-02-19T10:29:00.836Z,9.418295
2023-02-19T10:30:00.941Z,9.418326
2023-02-19T10:31:00.885Z,9.418248
2023-02-19T10:32:00.928Z,9.418097
2023-02-19T10:33:00.813Z,9.417841
2023-02-19T10:34:00.797Z,9.417941
2023-02-19T10:35:00.817Z,9.418466
2023-02-19T10:36:00.794Z,9.418154
2023-02-19T10:37:00.807Z,9.418014
2023-02-19T10:38:00.793Z,9.418072
2023-02-19T10:39:00.782Z,9.418155
2023-02-19T10:40:00.762Z,9.418076
2023-02-19T10:41:00.761Z,9.418131
2023-02-19T10:42:00.744Z,9.418033
2023-02-19T10:43:00.768Z,9.418180
2023-02-19T10:44:00.728Z,9.418324
2023-02-19T10:45:00.733Z,9.418170
2023-02-19T10:46:01.720Z,9.417960
2023-02-19T10:47:00.717Z,9.417947
2023-02-19T10:48:00.718Z,9.417928
2023-02-19T10:49:00.706Z,9.417987
2023-02-19T10:50:02.560Z,9.418063
2023-02-19T10:51:00.698Z,9.418096
2023-02-19T10:52:00.678Z,9.418173
2023-02-19T10:53:00.690Z,9.418119
2023-02-19T10:54:00.682Z,9.418267
2023-02-19T10:55:00.665Z,9.418668
2023-02-19T10:56:00.676Z,9.418147
2023-02-19T10:57:00.672Z,9.417903
2023-02-19T10:58:00.647Z,9.417989
2023-02-19T10:59:00.647Z,9.418074
2023-02-19T11:00:00.637Z,9.418181
2023-02-19T11:01:00.630Z,9.417987
2023-02-19T11:02:00.682Z,9.418028
2023-02-19T11:03:00.601Z,9.417956
2023-02-19T11:04:00.630Z,9.418119
2023-02-19T11:05:00.594Z,9.418043
2023-02-19T11:06:00.596Z,9.417958
2023-02-19T11:07:00.599Z,9.418334
2023-02-19T11:08:00.643Z,9.418331
2023-02-19T11:09:00.581Z,9.418389
2023-02-19T11:10:00.584Z,9.418325
2023-02-19T11:11:00.578Z,9.418382
2023-02-19T11:12:00.575Z,9.418454
2023-02-19T11:13:00.560Z,9.418475
2023-02-19T11:14:00.570Z,9.418575
2023-02-19T11:15:00.551Z,9.418496
2023-02-19T11:16:00.592Z,9.418540
2023-02-19T11:17:00.518Z,9.418456
2023-02-19T11:18:00.522Z,9.418546
2023-02-19T11:19:00.505Z,9.418521
2023-02-19T11:20:00.518Z,9.418452
2023-02-19T11:21:00.510Z,9.418481
2023-02-19T11:22:00.491Z,9.418451
2023-02-19T11:23:00.488Z,9.418415
2023-02-19T11:24:00.878Z,9.418418
2023-02-19T11:25:00.480Z,9.418391
2023-02-19T11:26:00.462Z,9.418370
2023-02-19T11:27:00.463Z,9.418232
2023-02-19T11:28:00.470Z,9.418321
2023-02-19T11:29:00.456Z,9.418394
2023-02-19T11:30:00.540Z,9.418501
2023-02-19T11:31:00.468Z,9.418455
2023-02-19T11:32:00.482Z,9.418415
2023-02-19T11:33:00.424Z,9.418466
2023-02-19T11:34:00.418Z,9.418348
2023-02-19T11:35:00.411Z,9.418370
2023-02-19T11:36:00.448Z,9.418407
2023-02-19T11:37:00.395Z,9.418406
2023-02-19T11:38:00.392Z,9.418375
2023-02-19T11:39:00.390Z,9.418322
2023-02-19T11:40:00.372Z,9.418360
2023-02-19T11:41:00.396Z,9.418446
2023-02-19T11:42:00.368Z,9.418416
2023-02-19T11:43:00.359Z,9.418307
2023-02-19T11:44:00.349Z,9.418471